Time;durP1;ratioP1;P1;durP2;ratioP2;P2;SDS_P1;SDS_P2;PMS_P1;PMS_P2;Temp;Humidity;BMP_temperature;BMP_pressure;BME280_temperature;BME280_humidity;BME280_pressure;Samples;Min_cycle;Max_cycle;Signal;HPM_P1;HPM_P2
2023/03/26 02:01:12;;;;;;;7.33;6.73;;;6.90;99.90;;;;;;5747667;23;20230;-76
2023/03/26 02:03:46;;;;;;;7.40;6.80;;;6.90;99.90;;;;;;4973020;28;20215;-75
2023/03/26 02:06:20;;;;;;;7.03;6.20;;;6.90;99.90;;;;;;4980361;28;20211;-76
2023/03/26 02:08:51;;;;;;;7.17;6.50;;;6.90;99.90;;;;;;4989927;28;20283;-75
2023/03/26 02:11:18;;;;;;;6.90;6.40;;;6.90;99.90;;;;;;4986234;28;20286;-75
2023/03/26 02:13:46;;;;;;;7.10;6.50;;;6.90;99.90;;;;;;4975335;28;20254;-76
2023/03/26 02:16:17;;;;;;;6.60;5.97;;;6.80;99.90;;;;;;4984324;28;20242;-75
2023/03/26 02:18:44;;;;;;;7.47;6.20;;;6.90;99.90;;;;;;4982181;28;20283;-75
2023/03/26 02:21:14;;;;;;;6.80;6.30;;;6.80;99.90;;;;;;4979666;28;20740;-76
2023/03/26 02:23:45;;;;;;;6.50;6.10;;;6.80;99.90;;;;;;4983186;28;20215;-75
2023/03/26 02:26:14;;;;;;;6.57;5.70;;;6.80;99.90;;;;;;4981799;28;20206;-76
2023/03/26 02:29:05;;;;;;;6.90;6.20;;;6.80;99.90;;;;;;4975854;28;20198;-75
2023/03/26 02:31:34;;;;;;;7.47;6.10;;;6.90;99.90;;;;;;4976051;28;20226;-76
2023/03/26 02:34:01;;;;;;;6.20;5.70;;;6.80;99.90;;;;;;4982389;28;20197;-75
2023/03/26 02:36:30;;;;;;;6.80;6.30;;;6.80;99.90;;;;;;4984376;28;20236;-75
2023/03/26 02:39:00;;;;;;;6.70;6.20;;;6.80;99.90;;;;;;4975831;28;20659;-76
2023/03/26 02:41:30;;;;;;;7.33;6.20;;;6.80;99.90;;;;;;4978010;28;20233;-76
2023/03/26 02:44:01;;;;;;;6.60;6.00;;;6.80;99.90;;;;;;4968662;28;20711;-75
2023/03/26 02:46:55;;;;;;;6.90;6.20;;;6.80;99.90;;;;;;4972437;28;20757;-76
2023/03/26 02:49:43;;;;;;;6.53;5.90;;;6.80;99.90;;;;;;4982176;28;20338;-75
2023/03/26 02:52:17;;;;;;;6.40;5.90;;;6.80;99.90;;;;;;4983610;28;20318;-75
2023/03/26 02:54:46;;;;;;;5.97;5.50;;;6.80;99.90;;;;;;4978943;28;20204;-75
2023/03/26 02:57:18;;;;;;;6.47;5.87;;;6.80;99.90;;;;;;4981868;28;20208;-76
2023/03/26 02:59:49;;;;;;;5.67;4.63;;;6.80;99.90;;;;;;4979445;28;20225;-75
2023/03/26 03:02:40;;;;;;;6.77;5.67;;;6.80;99.90;;;;;;4980771;28;20242;-76
2023/03/26 03:05:27;;;;;;;6.27;5.10;;;6.80;99.90;;;;;;4978093;28;20230;-75
2023/03/26 03:08:17;;;;;;;7.13;5.53;;;6.80;99.90;;;;;;4974716;28;20207;-76
2023/03/26 03:11:00;;;;;;;5.73;5.13;;;6.80;99.90;;;;;;4971331;28;20320;-78
2023/03/26 03:13:44;;;;;;;6.37;5.10;;;6.80;99.90;;;;;;4969897;28;20218;-78
2023/03/26 03:16:12;;;;;;;5.60;4.93;;;6.80;99.90;;;;;;4986563;28;20205;-79
2023/03/26 03:18:41;;;;;;;5.27;4.80;;;6.80;99.90;;;;;;4971791;28;20198;-79
2023/03/26 03:21:10;;;;;;;6.97;5.33;;;6.80;99.90;;;;;;4971836;28;20224;-79
2023/03/26 03:23:37;;;;;;;6.23;4.80;;;6.80;99.90;;;;;;4977323;28;20698;-79
2023/03/26 03:26:14;;;;;;;6.10;4.37;;;6.70;99.90;;;;;;4971977;28;20226;-78
2023/03/26 03:28:43;;;;;;;4.73;4.33;;;6.70;99.90;;;;;;4976699;28;20213;-78
2023/03/26 03:31:13;;;;;;;4.30;4.00;;;6.70;99.90;;;;;;4991571;28;20225;-79
2023/03/26 03:33:41;;;;;;;4.50;3.90;;;6.70;99.90;;;;;;4971878;28;20601;-78
2023/03/26 03:36:10;;;;;;;4.60;4.07;;;6.70;99.90;;;;;;4977441;28;20296;-78
2023/03/26 03:38:40;;;;;;;4.00;3.60;;;6.60;99.90;;;;;;4971908;28;20198;-78
2023/03/26 03:41:08;;;;;;;4.33;3.93;;;6.60;99.90;;;;;;4971120;28;20221;-79
2023/03/26 03:43:40;;;;;;;4.47;3.50;;;6.60;99.90;;;;;;4973637;28;20230;-79
2023/03/26 03:46:12;;;;;;;4.13;3.73;;;6.60;99.90;;;;;;4964164;28;20679;-78
2023/03/26 03:48:48;;;;;;;4.73;3.47;;;6.60;99.90;;;;;;4969976;28;20695;-77
2023/03/26 03:51:19;;;;;;;4.27;3.80;;;6.70;99.90;;;;;;4969736;28;20316;-79
2023/03/26 03:53:54;;;;;;;3.43;3.13;;;6.70;99.90;;;;;;4970134;28;20209;-78
2023/03/26 03:56:34;;;;;;;4.07;3.77;;;6.70;99.90;;;;;;4974042;28;20205;-78
2023/03/26 03:59:10;;;;;;;4.10;3.70;;;6.70;99.90;;;;;;4976862;28;20306;-77
2023/03/26 04:01:38;;;;;;;3.83;3.33;;;6.70;99.90;;;;;;4980248;28;20259;-80
2023/03/26 04:04:12;;;;;;;5.83;4.20;;;6.70;99.90;;;;;;4979056;28;20219;-79
2023/03/26 04:07:00;;;;;;;5.30;3.63;;;6.70;99.90;;;;;;4982783;28;20213;-78
2023/03/26 04:09:34;;;;;;;4.23;3.67;;;6.80;99.90;;;;;;4989257;28;20293;-78
2023/03/26 04:12:08;;;;;;;5.53;3.83;;;6.80;99.90;;;;;;4987220;28;20226;-79
2023/03/26 04:14:46;;;;;;;3.60;3.30;;;6.80;99.90;;;;;;4986242;28;20393;-78
2023/03/26 04:17:15;;;;;;;3.93;3.40;;;6.90;99.90;;;;;;4985399;28;20215;-76
2023/03/26 04:19:45;;;;;;;3.90;3.60;;;6.90;99.90;;;;;;4985580;28;20221;-82
2023/03/26 04:22:17;;;;;;;4.60;2.53;;;6.90;99.90;;;;;;4974628;28;20256;-78
2023/03/26 04:25:01;;;;;;;6.63;2.77;;;6.90;99.90;;;;;;4978447;28;20205;-78
2023/03/26 04:27:46;;;;;;;4.33;2.40;;;6.90;99.90;;;;;;4967989;28;20700;-77
2023/03/26 04:30:26;;;;;;;2.90;2.60;;;6.90;99.90;;;;;;4974243;28;20201;-75
2023/03/26 04:33:02;;;;;;;3.10;2.50;;;7.00;99.90;;;;;;4981298;28;20211;-76
2023/03/26 04:35:34;;;;;;;3.10;2.67;;;7.00;99.90;;;;;;4985088;28;20289;-75
2023/03/26 04:38:05;;;;;;;7.77;2.73;;;7.10;99.90;;;;;;4979431;28;20213;-76
2023/03/26 04:40:38;;;;;;;5.73;2.80;;;7.10;99.90;;;;;;4976885;28;20705;-75
2023/03/26 04:43:19;;;;;;;4.83;2.47;;;7.20;99.90;;;;;;4977201;28;20258;-76
2023/03/26 04:46:12;;;;;;;4.00;2.80;;;7.20;99.90;;;;;;4983434;28;20279;-75
2023/03/26 04:48:47;;;;;;;2.70;2.40;;;7.30;99.90;;;;;;4973606;28;20389;-76
2023/03/26 04:51:17;;;;;;;7.03;2.97;;;7.30;99.90;;;;;;4974204;28;20225;-76
2023/03/26 04:53:51;;;;;;;2.60;2.37;;;7.40;99.90;;;;;;4981945;28;20293;-75
2023/03/26 04:56:34;;;;;;;6.50;2.67;;;7.50;99.90;;;;;;4981559;28;20217;-76
2023/03/26 04:59:25;;;;;;;5.10;2.63;;;7.50;99.90;;;;;;4969934;28;20321;-75
2023/03/26 05:01:54;;;;;;;3.17;2.50;;;7.50;99.90;;;;;;4980176;28;20230;-76
2023/03/26 05:04:23;;;;;;;4.17;2.50;;;7.60;99.90;;;;;;4982052;28;20628;-76
2023/03/26 05:06:54;;;;;;;5.00;2.70;;;7.60;99.90;;;;;;4989141;28;20215;-76
2023/03/26 05:09:27;;;;;;;4.20;2.53;;;7.60;99.90;;;;;;4987222;28;20227;-76
2023/03/26 05:12:10;;;;;;;4.37;3.67;;;7.70;99.90;;;;;;4979356;28;20311;-75
2023/03/26 05:14:48;;;;;;;6.70;6.03;;;7.70;99.90;;;;;;4977212;28;20215;-75
2023/03/26 05:17:24;;;;;;;5.87;5.30;;;7.70;99.90;;;;;;4976564;28;20240;-75
2023/03/26 05:19:51;;;;;;;6.67;4.73;;;7.70;99.90;;;;;;4984586;28;20213;-75
2023/03/26 05:22:20;;;;;;;5.13;4.50;;;7.70;99.90;;;;;;4986611;28;20782;-75
2023/03/26 05:25:07;;;;;;;7.00;6.30;;;7.70;99.90;;;;;;4983972;28;20212;-75
2023/03/26 05:27:34;;;;;;;4.33;3.93;;;7.80;99.90;;;;;;4984101;28;20209;-76
2023/03/26 05:30:01;;;;;;;8.23;7.43;;;7.80;99.90;;;;;;4988628;28;20197;-75
2023/03/26 05:32:31;;;;;;;8.23;7.43;;;7.80;99.90;;;;;;4982188;28;20583;-75
2023/03/26 05:34:58;;;;;;;7.40;6.87;;;7.80;99.90;;;;;;4975904;28;20208;-75
2023/03/26 05:37:29;;;;;;;7.57;6.90;;;7.80;99.90;;;;;;4988181;28;20791;-76
2023/03/26 05:40:12;;;;;;;7.97;7.27;;;7.90;99.90;;;;;;4986963;28;20722;-77
2023/03/26 05:42:50;;;;;;;7.67;7.07;;;7.90;99.90;;;;;;4986109;28;20209;-75
2023/03/26 05:45:35;;;;;;;8.30;7.50;;;7.90;99.90;;;;;;4979190;28;20201;-76
2023/03/26 05:48:15;;;;;;;7.63;7.00;;;8.00;99.90;;;;;;4976845;28;20570;-75
2023/03/26 05:50:42;;;;;;;7.77;7.17;;;8.00;99.90;;;;;;4983812;28;20221;-75
2023/03/26 05:53:10;;;;;;;8.37;7.57;;;8.00;99.90;;;;;;4981819;28;20197;-75
2023/03/26 05:56:04;;;;;;;8.00;7.30;;;8.10;99.90;;;;;;4978718;28;20600;-76
2023/03/26 05:58:55;;;;;;;7.73;7.10;;;8.10;99.90;;;;;;4979416;28;20201;-75
2023/03/26 06:01:28;;;;;;;11.30;7.47;;;8.10;99.90;;;;;;4981198;28;20240;-76
2023/03/26 06:04:18;;;;;;;8.37;7.53;;;8.20;99.90;;;;;;4971106;28;20293;-75
2023/03/26 06:07:02;;;;;;;8.10;7.60;;;8.20;99.90;;;;;;4981350;28;20198;-75
2023/03/26 06:09:31;;;;;;;8.20;7.60;;;8.20;99.90;;;;;;4983813;28;20660;-75
2023/03/26 06:11:58;;;;;;;8.17;7.50;;;8.20;99.90;;;;;;4987114;28;20213;-76
2023/03/26 06:14:26;;;;;;;8.57;7.60;;;8.30;99.90;;;;;;4979878;28;20271;-77
2023/03/26 06:17:06;;;;;;;8.37;7.30;;;8.30;99.90;;;;;;4976800;28;20201;-75
2023/03/26 06:19:53;;;;;;;7.97;7.37;;;8.30;99.90;;;;;;4976387;28;20304;-76
2023/03/26 06:22:32;;;;;;;10.40;7.43;;;8.30;99.90;;;;;;4982840;28;20252;-76
2023/03/26 06:25:18;;;;;;;8.40;7.53;;;8.30;99.90;;;;;;4981601;28;20205;-76
2023/03/26 06:28:02;;;;;;;8.27;7.47;;;8.30;99.90;;;;;;4978694;28;20756;-75
2023/03/26 06:30:47;;;;;;;7.37;6.87;;;8.30;99.90;;;;;;4977645;28;20213;-76
2023/03/26 06:33:24;;;;;;;8.00;7.30;;;8.30;99.90;;;;;;4981455;28;20559;-75
2023/03/26 06:35:51;;;;;;;8.40;7.80;;;8.30;99.90;;;;;;4983909;28;20201;-76
2023/03/26 06:38:18;;;;;;;8.30;7.60;;;8.40;99.90;;;;;;4982566;28;20198;-75
2023/03/26 06:40:46;;;;;;;7.77;7.20;;;8.30;99.90;;;;;;4980622;28;20600;-75
2023/03/26 06:43:35;;;;;;;8.90;7.90;;;8.40;99.90;;;;;;4974260;28;20282;-75
2023/03/26 06:46:37;;;;;;;8.33;7.67;;;8.40;99.90;;;;;;4972186;28;20643;-75
2023/03/26 06:49:22;;;;;;;8.57;7.87;;;8.30;99.90;;;;;;4972691;28;20255;-76
2023/03/26 06:52:08;;;;;;;8.17;7.57;;;8.40;99.90;;;;;;4985003;28;20224;-76
2023/03/26 06:55:04;;;;;;;8.70;8.00;;;8.40;99.90;;;;;;4972671;28;20246;-77
2023/03/26 06:57:56;;;;;;;10.33;8.43;;;8.40;99.90;;;;;;4984831;28;20212;-78
2023/03/26 07:00:46;;;;;;;8.80;8.00;;;8.40;99.90;;;;;;4968922;28;20640;-80
2023/03/26 07:03:37;;;;;;;9.20;8.47;;;8.40;99.90;;;;;;4960073;28;20213;-78
2023/03/26 07:06:22;;;;;;;9.40;8.50;;;8.40;99.90;;;;;;4981774;28;20702;-78
2023/03/26 07:09:09;;;;;;;9.53;8.50;;;8.40;99.90;;;;;;4994684;28;20747;-80
2023/03/26 07:11:55;;;;;;;12.07;8.87;;;8.40;99.90;;;;;;4992038;28;20360;-79
2023/03/26 07:14:41;;;;;;;9.07;8.37;;;8.30;99.90;;;;;;4964058;28;20257;-79
2023/03/26 07:17:22;;;;;;;10.20;9.30;;;8.40;99.90;;;;;;4966030;28;20209;-76
2023/03/26 07:20:02;;;;;;;9.30;8.50;;;8.40;99.90;;;;;;4968510;28;20217;-76
2023/03/26 07:22:29;;;;;;;9.83;8.83;;;8.40;99.90;;;;;;4972387;28;20612;-76
2023/03/26 07:25:18;;;;;;;9.43;8.43;;;8.30;99.90;;;;;;4961123;28;20198;-76
2023/03/26 07:28:24;;;;;;;9.80;8.77;;;8.30;99.90;;;;;;4962797;28;20264;-76
2023/03/26 07:31:25;;;;;;;10.87;8.63;;;8.30;99.90;;;;;;4956513;28;20226;-81
2023/03/26 07:34:30;;;;;;;8.97;8.20;;;8.30;99.90;;;;;;4971016;28;20265;-75
2023/03/26 07:37:38;;;;;;;10.07;9.07;;;8.20;99.90;;;;;;4961885;28;20260;-75
2023/03/26 07:40:50;;;;;;;9.63;8.50;;;8.20;99.90;;;;;;4974416;28;20236;-75
2023/03/26 07:43:49;;;;;;;10.13;9.00;;;8.20;99.90;;;;;;4969186;28;20208;-75
2023/03/26 07:46:38;;;;;;;12.17;9.50;;;8.20;99.90;;;;;;4966461;28;20283;-76
2023/03/26 07:49:23;;;;;;;9.70;8.70;;;8.20;99.90;;;;;;4968729;28;20209;-76
2023/03/26 07:52:10;;;;;;;10.03;9.03;;;8.20;99.90;;;;;;4969233;28;20224;-76
2023/03/26 07:54:46;;;;;;;9.73;8.90;;;8.20;99.90;;;;;;4979522;28;20228;-78
2023/03/26 07:57:43;;;;;;;9.60;8.80;;;8.30;99.90;;;;;;4964552;28;20212;-79
2023/03/26 08:00:33;;;;;;;9.70;8.90;;;8.30;99.90;;;;;;4975902;28;20225;-77
2023/03/26 08:03:30;;;;;;;9.33;8.53;;;8.40;99.90;;;;;;4970286;28;20202;-77
2023/03/26 08:06:23;;;;;;;9.17;8.37;;;8.50;99.90;;;;;;4970410;28;20710;-78
2023/03/26 08:09:08;;;;;;;9.00;8.30;;;8.50;99.90;;;;;;4968784;28;20286;-75
2023/03/26 08:11:58;;;;;;;9.37;8.30;;;8.60;99.90;;;;;;4943710;28;20313;-76
2023/03/26 08:14:44;;;;;;;8.60;7.90;;;8.70;99.90;;;;;;4974148;28;20214;-76
2023/03/26 08:17:13;;;;;;;8.70;8.00;;;8.70;99.90;;;;;;4953501;28;20624;-77
2023/03/26 08:19:56;;;;;;;9.23;8.40;;;8.70;99.90;;;;;;4961380;28;20218;-77
2023/03/26 08:22:28;;;;;;;9.20;8.50;;;8.70;99.90;;;;;;4967052;28;20692;-77
2023/03/26 08:25:16;;;;;;;8.83;8.13;;;8.70;99.90;;;;;;4971789;28;20208;-77
2023/03/26 08:27:51;;;;;;;9.53;8.73;;;8.70;99.90;;;;;;4965715;28;20210;-80
2023/03/26 08:30:21;;;;;;;9.87;8.70;;;8.60;99.90;;;;;;4958243;28;20194;-76
2023/03/26 08:32:54;;;;;;;10.17;9.27;;;8.60;99.90;;;;;;4968831;28;20672;-76
2023/03/26 08:35:27;;;;;;;9.27;8.37;;;8.60;99.90;;;;;;4953954;28;20687;-76
2023/03/26 08:37:54;;;;;;;9.87;8.87;;;8.50;99.90;;;;;;4962722;28;20644;-76
2023/03/26 08:40:49;;;;;;;11.07;10.07;;;8.50;99.90;;;;;;4969060;28;20725;-76
2023/03/26 08:43:45;;;;;;;12.80;10.17;;;8.60;99.90;;;;;;4955821;28;20203;-76
2023/03/26 08:46:29;;;;;;;10.23;9.33;;;8.60;99.90;;;;;;4965562;28;20202;-76
2023/03/26 08:49:09;;;;;;;9.90;9.10;;;8.80;99.90;;;;;;4958379;28;20194;-75
2023/03/26 08:52:13;;;;;;;10.33;9.53;;;8.80;99.90;;;;;;4959467;28;20229;-76
2023/03/26 08:55:35;;;;;;;10.37;9.57;;;8.80;99.90;;;;;;4956154;28;20294;-76
2023/03/26 08:58:38;;;;;;;9.87;9.17;;;8.90;99.90;;;;;;4980356;28;21269;-76
2023/03/26 09:01:38;;;;;;;9.50;8.80;;;9.00;99.90;;;;;;4961153;28;20218;-76
2023/03/26 09:04:38;;;;;;;9.67;8.87;;;9.00;99.90;;;;;;4962580;28;20198;-76
2023/03/26 09:07:40;;;;;;;10.23;9.43;;;9.00;99.90;;;;;;4966127;28;20524;-76
2023/03/26 09:10:52;;;;;;;9.80;9.20;;;9.00;99.90;;;;;;4958593;28;20201;-76
2023/03/26 09:13:45;;;;;;;10.20;9.50;;;8.90;99.90;;;;;;4915088;29;20624;-77
2023/03/26 09:16:41;;;;;;;9.73;9.13;;;9.00;99.90;;;;;;4962742;28;20211;-76
2023/03/26 09:19:41;;;;;;;9.90;9.20;;;9.10;99.90;;;;;;4965435;28;20209;-76
2023/03/26 09:22:40;;;;;;;10.10;9.40;;;9.30;99.90;;;;;;4971177;28;20222;-76
2023/03/26 09:25:41;;;;;;;9.23;8.53;;;9.70;99.90;;;;;;4968574;28;20284;-76
2023/03/26 09:29:11;;;;;;;9.93;9.13;;;10.00;99.90;;;;;;4966823;28;20669;-76
2023/03/26 09:32:08;;;;;;;4.57;4.10;;;10.40;99.90;;;;;;4912490;29;20283;-75
2023/03/26 09:34:54;;;;;;;8.17;7.53;;;10.60;99.90;;;;;;4973563;28;20199;-79
2023/03/26 09:37:28;;;;;;;7.43;6.93;;;10.70;99.90;;;;;;4972379;28;20298;-80
2023/03/26 09:40:14;;;;;;;9.00;8.40;;;10.60;99.90;;;;;;4970157;28;20686;-77
2023/03/26 09:42:45;;;;;;;9.33;8.73;;;10.60;99.90;;;;;;4974730;28;20230;-76
2023/03/26 09:45:41;;;;;;;9.20;8.50;;;10.50;99.90;;;;;;4969835;28;20234;-78
2023/03/26 09:48:32;;;;;;;9.50;8.70;;;10.60;99.90;;;;;;4975570;28;20202;-79
2023/03/26 09:51:17;;;;;;;8.80;8.20;;;10.80;99.90;;;;;;4971365;28;20238;-79
2023/03/26 09:54:01;;;;;;;7.77;7.07;;;11.00;99.90;;;;;;4978064;28;20272;-81
2023/03/26 09:56:40;;;;;;;7.63;7.10;;;11.00;99.90;;;;;;4971415;28;20198;-80
2023/03/26 09:59:49;;;;;;;8.00;7.20;;;11.10;99.90;;;;;;4974199;28;20200;-80
2023/03/26 10:02:34;;;;;;;6.87;6.37;;;11.20;99.90;;;;;;4960144;28;20253;-77
2023/03/26 10:05:37;;;;;;;7.00;6.47;;;11.40;99.90;;;;;;4969092;28;20232;-76
2023/03/26 10:08:20;;;;;;;7.17;6.50;;;11.30;99.90;;;;;;4983638;28;20206;-77
2023/03/26 10:10:54;;;;;;;6.73;6.23;;;11.30;99.90;;;;;;4977025;28;20216;-77
2023/03/26 10:13:29;;;;;;;6.10;5.70;;;11.30;99.90;;;;;;4973312;28;20683;-77
2023/03/26 10:16:09;;;;;;;5.77;5.47;;;11.30;99.90;;;;;;4967994;28;20718;-77
2023/03/26 10:18:48;;;;;;;5.50;5.10;;;11.30;99.90;;;;;;4965697;28;20582;-76
2023/03/26 10:21:25;;;;;;;4.70;4.50;;;11.30;99.90;;;;;;4970541;28;20251;-77
2023/03/26 10:24:13;;;;;;;4.90;4.60;;;11.20;99.90;;;;;;4966990;28;20204;-77
2023/03/26 10:26:57;;;;;;;5.00;4.70;;;11.10;99.90;;;;;;4960854;28;20213;-77
2023/03/26 10:30:17;;;;;;;4.67;4.37;;;10.90;99.90;;;;;;4972204;28;20197;-77
2023/03/26 10:32:53;;;;;;;5.83;5.53;;;10.80;99.90;;;;;;4970733;28;20222;-77
2023/03/26 10:35:29;;;;;;;6.83;6.43;;;10.70;99.90;;;;;;4966762;28;20612;-77
2023/03/26 10:38:08;;;;;;;7.13;6.73;;;10.70;99.90;;;;;;4963336;28;20207;-77
2023/03/26 10:40:44;;;;;;;8.50;8.10;;;10.70;99.90;;;;;;4960517;28;20201;-77
2023/03/26 10:43:48;;;;;;;8.20;7.70;;;11.10;99.90;;;;;;4969675;28;20212;-78
2023/03/26 10:46:38;;;;;;;4.90;4.60;;;11.60;99.90;;;;;;4969443;28;20211;-76
2023/03/26 10:49:40;;;;;;;6.10;4.73;;;12.00;99.90;;;;;;4957735;28;20202;-77
2023/03/26 10:52:14;;;;;;;8.10;7.60;;;12.30;99.90;;;;;;4963079;28;20221;-76
2023/03/26 10:54:54;;;;;;;6.07;5.60;;;12.60;99.90;;;;;;4962734;28;20204;-76
2023/03/26 10:57:35;;;;;;;5.50;5.20;;;12.70;99.90;;;;;;4967429;28;20216;-75
2023/03/26 11:00:14;;;;;;;2.90;2.70;;;12.80;99.90;;;;;;4970481;28;20197;-79
2023/03/26 11:02:56;;;;;;;4.83;4.53;;;12.90;99.90;;;;;;4974504;28;20224;-82
2023/03/26 11:05:48;;;;;;;2.67;2.57;;;12.90;99.90;;;;;;4966702;28;20197;-79
2023/03/26 11:08:38;;;;;;;3.90;3.60;;;12.90;99.90;;;;;;4966510;28;20203;-81
2023/03/26 11:11:31;;;;;;;2.67;2.47;;;12.80;99.90;;;;;;4982298;28;20667;-78
2023/03/26 11:14:12;;;;;;;2.10;1.90;;;12.90;99.90;;;;;;4973534;28;20201;-78
2023/03/26 11:17:01;;;;;;;1.90;1.80;;;13.00;99.90;;;;;;4967320;28;20207;-78
2023/03/26 11:19:37;;;;;;;1.90;1.80;;;13.30;99.90;;;;;;4964578;28;20199;-78
2023/03/26 11:22:18;;;;;;;2.00;1.80;;;13.50;99.90;;;;;;4963409;28;20214;-79
2023/03/26 11:25:08;;;;;;;1.80;1.70;;;13.40;99.90;;;;;;4969500;28;20202;-78
2023/03/26 11:27:49;;;;;;;1.60;1.50;;;13.00;99.90;;;;;;4969510;28;20672;-79
2023/03/26 11:30:29;;;;;;;3.40;3.10;;;12.60;99.90;;;;;;4977568;28;20206;-78
2023/03/26 11:33:01;;;;;;;2.30;2.20;;;12.40;99.90;;;;;;4968010;28;20202;-78
2023/03/26 11:35:31;;;;;;;2.30;2.20;;;12.30;99.90;;;;;;4959743;28;20256;-82
2023/03/26 11:38:03;;;;;;;3.03;2.83;;;12.30;99.90;;;;;;4964158;28;20202;-79
2023/03/26 11:40:35;;;;;;;2.47;2.27;;;12.20;99.90;;;;;;4963656;28;20213;-79
2023/03/26 11:43:05;;;;;;;2.63;2.53;;;12.20;99.90;;;;;;4965765;28;20236;-79
2023/03/26 11:45:36;;;;;;;3.33;3.13;;;12.40;99.90;;;;;;4966988;28;20670;-80
2023/03/26 11:48:09;;;;;;;2.90;2.70;;;12.60;99.90;;;;;;4972985;28;20193;-80
2023/03/26 11:50:42;;;;;;;3.17;2.97;;;12.70;99.90;;;;;;4969710;28;20684;-79
2023/03/26 11:53:13;;;;;;;4.07;3.87;;;12.60;99.90;;;;;;4971106;28;20206;-81
2023/03/26 11:55:47;;;;;;;4.93;4.63;;;12.50;99.90;;;;;;4971475;28;20296;-81
2023/03/26 11:58:26;;;;;;;5.57;5.17;;;12.50;99.90;;;;;;4971851;28;20201;-81
2023/03/26 12:00:54;;;;;;;2.07;1.97;;;12.40;99.90;;;;;;4970449;28;20237;-80
2023/03/26 12:03:21;;;;;;;2.10;1.90;;;12.40;99.90;;;;;;4973199;28;20237;-79
2023/03/26 12:05:50;;;;;;;2.60;2.40;;;12.40;99.90;;;;;;4973290;28;20265;-79
2023/03/26 12:08:28;;;;;;;2.83;2.73;;;12.50;99.90;;;;;;4971888;28;20216;-79
2023/03/26 12:11:05;;;;;;;5.33;5.03;;;12.50;99.90;;;;;;4971146;28;20333;-79
2023/03/26 12:13:39;;;;;;;6.50;6.10;;;12.60;99.90;;;;;;4977855;28;20251;-81
2023/03/26 12:16:11;;;;;;;5.30;4.90;;;12.70;99.90;;;;;;4972067;28;20293;-79
2023/03/26 12:18:40;;;;;;;5.13;4.67;;;12.80;99.90;;;;;;4971348;28;20220;-80
2023/03/26 12:21:14;;;;;;;5.37;4.97;;;12.90;99.90;;;;;;4970212;28;20214;-80
2023/03/26 12:23:54;;;;;;;4.40;4.00;;;13.00;99.90;;;;;;4969525;28;20255;-81
2023/03/26 12:26:38;;;;;;;2.30;2.20;;;13.20;99.90;;;;;;4969521;28;20211;-81
2023/03/26 12:29:09;;;;;;;2.67;2.10;;;13.40;99.90;;;;;;4972405;28;20202;-81
2023/03/26 12:31:55;;;;;;;2.60;2.00;;;13.50;99.90;;;;;;4961694;28;20218;-80
2023/03/26 12:34:29;;;;;;;1.80;1.70;;;13.70;99.90;;;;;;4970811;28;20632;-81
2023/03/26 12:36:58;;;;;;;3.17;1.97;;;13.80;99.90;;;;;;4969081;28;20688;-80
2023/03/26 12:39:36;;;;;;;2.63;2.30;;;13.90;99.90;;;;;;4969447;28;20277;-78
2023/03/26 12:42:06;;;;;;;1.80;1.70;;;14.00;99.90;;;;;;4965613;28;20281;-79
2023/03/26 12:44:44;;;;;;;3.60;2.10;;;14.10;99.90;;;;;;4962598;28;20208;-80
2023/03/26 12:47:19;;;;;;;2.07;1.90;;;14.10;99.90;;;;;;4966111;28;20210;-79
2023/03/26 12:49:47;;;;;;;3.20;2.47;;;14.20;99.90;;;;;;4974059;28;20211;-79
2023/03/26 12:52:40;;;;;;;1.90;1.80;;;14.40;99.90;;;;;;4968681;28;20321;-79
2023/03/26 12:55:23;;;;;;;1.97;1.80;;;14.50;99.90;;;;;;4973599;28;20202;-79
2023/03/26 12:58:01;;;;;;;2.00;1.80;;;14.60;99.90;;;;;;4974316;28;20219;-80
2023/03/26 13:00:47;;;;;;;2.77;2.10;;;14.70;99.90;;;;;;4968042;28;20207;-80
2023/03/26 13:03:40;;;;;;;2.10;1.77;;;14.80;99.90;;;;;;4970956;28;20728;-80
2023/03/26 13:06:34;;;;;;;3.43;2.30;;;14.70;99.90;;;;;;4969869;28;20558;-80
2023/03/26 13:09:22;;;;;;;2.07;1.97;;;14.60;99.90;;;;;;4970568;28;20216;-80
2023/03/26 13:12:02;;;;;;;2.30;2.10;;;14.60;99.90;;;;;;4966990;28;20228;-81
2023/03/26 13:14:49;;;;;;;2.10;2.00;;;14.40;99.90;;;;;;4970792;28;20212;-80
2023/03/26 13:17:25;;;;;;;3.43;2.50;;;14.20;99.90;;;;;;4968427;28;20199;-81
2023/03/26 13:20:01;;;;;;;2.37;2.17;;;14.00;99.90;;;;;;4964027;28;20637;-80
2023/03/26 13:22:38;;;;;;;2.53;2.33;;;13.90;99.90;;;;;;4966423;28;20265;-81
2023/03/26 13:25:17;;;;;;;2.40;2.20;;;13.90;99.90;;;;;;4975556;28;20193;-81
2023/03/26 13:27:57;;;;;;;2.30;2.20;;;14.20;99.90;;;;;;4966203;28;20273;-80
2023/03/26 13:30:33;;;;;;;2.63;2.30;;;14.40;99.90;;;;;;4970397;28;20206;-81
2023/03/26 13:33:21;;;;;;;3.77;2.13;;;14.50;99.90;;;;;;4967693;28;20633;-81
2023/03/26 13:35:53;;;;;;;2.50;2.30;;;14.50;99.90;;;;;;4970181;28;20731;-80
2023/03/26 13:38:28;;;;;;;2.40;2.20;;;14.60;99.90;;;;;;4964631;28;20620;-81
2023/03/26 13:41:04;;;;;;;2.43;2.17;;;14.80;99.90;;;;;;4956176;28;20279;-81
2023/03/26 13:43:44;;;;;;;2.63;2.17;;;14.90;99.90;;;;;;4955728;28;20300;-81
2023/03/26 13:46:25;;;;;;;4.00;2.20;;;14.90;99.90;;;;;;4967416;28;20591;-81
2023/03/26 13:48:57;;;;;;;2.60;2.40;;;15.00;99.90;;;;;;4969485;28;20206;-78
2023/03/26 13:51:30;;;;;;;2.13;1.93;;;15.00;99.90;;;;;;4984034;28;20231;-78
2023/03/26 13:54:04;;;;;;;2.80;2.27;;;14.80;99.90;;;;;;4964101;28;20295;-78
2023/03/26 13:56:36;;;;;;;2.67;2.40;;;14.70;99.90;;;;;;4969396;28;20251;-78
2023/03/26 13:59:08;;;;;;;3.67;3.10;;;14.50;99.90;;;;;;4968440;28;20204;-78
2023/03/26 14:01:43;;;;;;;6.23;4.70;;;14.20;99.90;;;;;;4966461;28;20225;-79
2023/03/26 14:04:18;;;;;;;5.07;4.73;;;14.00;99.90;;;;;;4969754;28;20683;-78
2023/03/26 14:06:52;;;;;;;6.33;5.40;;;14.00;99.90;;;;;;4969142;28;20204;-78
2023/03/26 14:09:26;;;;;;;5.00;4.70;;;13.90;99.90;;;;;;4970307;28;20303;-79
2023/03/26 14:12:29;;;;;;;5.00;4.70;;;14.00;99.90;;;;;;4967412;28;20222;-78
2023/03/26 14:14:59;;;;;;;5.50;5.20;;;14.10;99.90;;;;;;4944917;28;20672;-77
2023/03/26 14:17:35;;;;;;;6.00;5.60;;;14.00;99.90;;;;;;4963837;28;20723;-78
2023/03/26 14:20:26;;;;;;;6.07;3.80;;;14.00;99.90;;;;;;4964104;28;20629;-77
2023/03/26 14:23:09;;;;;;;5.10;4.73;;;14.10;99.90;;;;;;4958626;28;20209;-77
2023/03/26 14:25:54;;;;;;;7.40;6.80;;;14.30;99.90;;;;;;4972792;28;20203;-78
2023/03/26 14:28:40;;;;;;;10.27;9.27;;;14.40;99.90;;;;;;4961365;28;20229;-77
2023/03/26 14:31:22;;;;;;;7.80;6.93;;;14.50;99.90;;;;;;4967179;28;20742;-84
2023/03/26 14:34:03;;;;;;;6.43;4.10;;;14.60;99.90;;;;;;4954339;28;20204;-80
2023/03/26 14:36:51;;;;;;;7.97;4.87;;;14.70;99.90;;;;;;4967372;28;20234;-80
2023/03/26 14:39:37;;;;;;;8.03;6.07;;;14.80;99.90;;;;;;4963715;28;20232;-82
2023/03/26 14:42:12;;;;;;;6.77;4.70;;;14.80;99.90;;;;;;4966642;28;20266;-80
2023/03/26 14:45:03;;;;;;;3.87;2.93;;;14.80;99.90;;;;;;4968033;28;20256;-80
2023/03/26 14:47:32;;;;;;;12.20;9.00;;;14.60;99.90;;;;;;4963903;28;20295;-81
2023/03/26 14:50:45;;;;;;;14.00;10.47;;;14.50;99.90;;;;;;4967734;28;20256;-79
2023/03/26 14:53:18;;;;;;;11.03;8.03;;;14.20;99.90;;;;;;4970287;28;20272;-81
2023/03/26 14:56:10;;;;;;;6.67;3.50;;;14.00;99.90;;;;;;4972203;28;20687;-80
2023/03/26 14:59:15;;;;;;;5.17;4.03;;;13.70;99.90;;;;;;4973487;28;20198;-80
2023/03/26 15:02:16;;;;;;;10.90;6.47;;;13.40;99.90;;;;;;4966846;28;20233;-80
2023/03/26 15:04:56;;;;;;;7.60;4.23;;;13.10;99.90;;;;;;4965542;28;20193;-80
2023/03/26 15:07:43;;;;;;;8.33;5.93;;;13.00;99.90;;;;;;4960752;28;20198;-76
2023/03/26 15:10:32;;;;;;;5.17;3.73;;;12.90;99.90;;;;;;4959290;28;20269;-77
2023/03/26 15:13:11;;;;;;;8.90;6.53;;;12.80;99.90;;;;;;4951566;28;20222;-77
2023/03/26 15:15:57;;;;;;;4.60;4.03;;;12.80;99.90;;;;;;4972094;28;20261;-77
2023/03/26 15:19:06;;;;;;;6.53;5.07;;;12.70;99.90;;;;;;4970066;28;20217;-77
2023/03/26 15:22:24;;;;;;;6.07;4.33;;;12.60;99.90;;;;;;4966317;28;20236;-77
2023/03/26 15:25:28;;;;;;;9.97;6.70;;;12.60;99.90;;;;;;4927440;29;20236;-77
2023/03/26 15:28:33;;;;;;;9.77;7.80;;;12.50;99.90;;;;;;4894857;29;20199;-77
2023/03/26 15:31:15;;;;;;;11.37;10.27;;;12.30;99.90;;;;;;4981352;28;20222;-77
2023/03/26 15:34:30;;;;;;;13.30;11.90;;;12.20;99.90;;;;;;4965330;28;20221;-77
2023/03/26 15:37:48;;;;;;;11.80;10.60;;;11.90;99.90;;;;;;4889183;29;20260;-77
2023/03/26 15:40:40;;;;;;;11.53;10.33;;;11.50;99.90;;;;;;4925203;29;20277;-77
2023/03/26 15:43:11;;;;;;;9.13;8.33;;;11.00;99.90;;;;;;4910501;29;20234;-77
2023/03/26 15:45:41;;;;;;;9.13;8.43;;;10.60;99.90;;;;;;4956633;28;20278;-78
2023/03/26 15:48:51;;;;;;;9.37;8.57;;;10.40;99.90;;;;;;4980984;28;20279;-79
2023/03/26 15:51:29;;;;;;;7.83;7.30;;;10.10;99.90;;;;;;4965458;28;20606;-79
2023/03/26 15:54:02;;;;;;;7.80;7.20;;;9.90;99.90;;;;;;4987611;28;20202;-82
2023/03/26 15:56:55;;;;;;;7.93;7.20;;;9.80;99.90;;;;;;4972156;28;20266;-80
2023/03/26 15:59:37;;;;;;;7.53;6.93;;;9.60;99.90;;;;;;4975181;28;20250;-81
2023/03/26 16:02:16;;;;;;;8.10;7.50;;;9.50;99.90;;;;;;4983165;28;20230;-79
2023/03/26 16:04:49;;;;;;;7.83;7.33;;;9.50;99.90;;;;;;4981026;28;20252;-83